Time;durP1;ratioP1;P1;durP2;ratioP2;P2;SDS_P1;SDS_P2;PMS_P1;PMS_P2;Temp;Humidity;BMP_temperature;BMP_pressure;BME280_temperature;BME280_humidity;BME280_pressure;Samples;Min_cycle;Max_cycle;Signal;HPM_P1;HPM_P2
2021/09/22 00:00:42;;;;;;;20.30;10.30;;;11.00;95.90;;;;;;5051155;28;20430;-81
2021/09/22 00:03:07;;;;;;;26.10;11.40;;;10.90;96.00;;;;;;5051158;28;20195;-83
2021/09/22 00:05:33;;;;;;;23.80;11.00;;;10.90;95.80;;;;;;5051535;28;20435;-82
2021/09/22 00:07:59;;;;;;;26.23;11.55;;;10.90;96.00;;;;;;5050941;28;21015;-81
2021/09/22 00:10:25;;;;;;;22.67;10.25;;;10.90;96.10;;;;;;5050313;28;20192;-81
2021/09/22 00:12:51;;;;;;;22.23;11.23;;;10.90;96.60;;;;;;5050881;28;20650;-82
2021/09/22 00:15:20;;;;;;;19.90;10.70;;;10.90;96.90;;;;;;5050832;28;20792;-81
2021/09/22 00:17:47;;;;;;;23.13;10.73;;;10.80;96.80;;;;;;5051231;28;20170;-81
2021/09/22 00:20:14;;;;;;;21.35;10.93;;;10.80;96.50;;;;;;5051565;28;20177;-81
2021/09/22 00:25:08;;;;;;;26.00;11.68;;;10.80;96.80;;;;;;5039176;28;20214;-80
2021/09/22 00:27:34;;;;;;;26.00;11.60;;;10.80;97.10;;;;;;5023641;28;20565;-81
2021/09/22 00:30:00;;;;;;;22.43;10.70;;;10.80;97.10;;;;;;5022578;28;20260;-81
2021/09/22 00:32:27;;;;;;;22.67;10.50;;;10.70;96.80;;;;;;5023067;28;20497;-81
2021/09/22 00:34:53;;;;;;;25.08;12.13;;;10.70;96.80;;;;;;5040615;28;20184;-81
2021/09/22 00:37:20;;;;;;;26.75;12.43;;;10.70;96.80;;;;;;5023777;28;20630;-81
2021/09/22 00:39:46;;;;;;;27.52;12.55;;;10.70;96.90;;;;;;5023537;28;20197;-81
2021/09/22 00:42:12;;;;;;;23.58;12.30;;;10.70;97.10;;;;;;5023870;28;20200;-81
2021/09/22 00:44:48;;;;;;;25.88;11.45;;;10.70;97.00;;;;;;5023615;28;20540;-81
2021/09/22 00:47:15;;;;;;;23.98;12.50;;;10.60;97.20;;;;;;5023007;28;20177;-80
2021/09/22 00:49:40;;;;;;;21.95;11.18;;;10.60;97.40;;;;;;5041697;28;20262;-81
2021/09/22 00:52:06;;;;;;;22.27;11.77;;;10.60;97.40;;;;;;5022964;28;20174;-81
2021/09/22 00:54:32;;;;;;;25.70;11.77;;;10.60;97.30;;;;;;5021957;28;20484;-81
2021/09/22 00:56:58;;;;;;;25.27;12.90;;;10.60;97.40;;;;;;5023343;28;20482;-81
2021/09/22 00:59:24;;;;;;;26.35;12.32;;;10.50;97.60;;;;;;5022678;28;20492;-81
2021/09/22 01:01:50;;;;;;;25.40;12.23;;;10.50;97.80;;;;;;5023622;28;20228;-81
2021/09/22 01:04:16;;;;;;;25.10;12.70;;;10.50;97.50;;;;;;5023535;28;20453;-81
2021/09/22 01:06:43;;;;;;;23.63;11.15;;;10.50;97.40;;;;;;5021966;28;20437;-81
2021/09/22 01:09:09;;;;;;;20.85;11.70;;;10.40;97.60;;;;;;5022820;28;20170;-81
2021/09/22 01:11:35;;;;;;;27.83;12.98;;;10.40;97.90;;;;;;5022554;28;20177;-81
2021/09/22 01:14:01;;;;;;;27.38;12.15;;;10.40;97.80;;;;;;5021190;28;20180;-81
2021/09/22 01:16:27;;;;;;;30.15;12.90;;;10.40;97.40;;;;;;5022333;28;20232;-81
2021/09/22 01:18:53;;;;;;;20.90;11.40;;;10.40;97.60;;;;;;5022037;28;20174;-81
2021/09/22 01:21:22;;;;;;;26.70;12.90;;;10.40;97.70;;;;;;5021609;28;20498;-81
2021/09/22 01:23:48;;;;;;;22.70;13.05;;;10.40;97.80;;;;;;5023206;28;20429;-81
2021/09/22 01:26:13;;;;;;;28.83;12.67;;;10.40;98.10;;;;;;5023123;28;20680;-81
2021/09/22 01:28:39;;;;;;;26.67;11.90;;;10.40;98.10;;;;;;5022553;28;20454;-82
2021/09/22 01:31:05;;;;;;;31.87;12.50;;;10.40;98.10;;;;;;5023077;28;20174;-81
2021/09/22 01:33:31;;;;;;;25.33;12.00;;;10.40;98.10;;;;;;5021494;28;20174;-81
2021/09/22 01:35:57;;;;;;;28.73;13.33;;;10.40;98.30;;;;;;5020005;28;20240;-81
2021/09/22 01:38:25;;;;;;;30.00;13.15;;;10.40;98.50;;;;;;5020798;28;20428;-81
2021/09/22 01:40:57;;;;;;;31.60;15.13;;;10.40;98.30;;;;;;5018443;28;20193;-79
2021/09/22 01:43:24;;;;;;;28.08;12.10;;;10.30;98.40;;;;;;5016358;28;20587;-79
2021/09/22 01:45:50;;;;;;;27.73;12.88;;;10.30;98.50;;;;;;5016000;28;20190;-79
2021/09/22 01:48:16;;;;;;;24.27;12.45;;;10.30;98.60;;;;;;5016022;28;20174;-79
2021/09/22 01:50:42;;;;;;;24.00;11.60;;;10.30;98.80;;;;;;5016093;28;20197;-79
2021/09/22 01:53:08;;;;;;;24.70;11.80;;;10.30;98.80;;;;;;5015935;28;20272;-79
2021/09/22 01:55:33;;;;;;;26.73;12.37;;;10.20;98.80;;;;;;5015621;28;20799;-79
2021/09/22 01:58:01;;;;;;;28.13;12.57;;;10.20;98.80;;;;;;5016151;28;20174;-79
2021/09/22 02:00:27;;;;;;;31.80;12.95;;;10.20;98.80;;;;;;5016580;28;20496;-78
2021/09/22 02:02:53;;;;;;;31.90;13.10;;;10.20;98.60;;;;;;5016276;28;20641;-78
2021/09/22 02:05:18;;;;;;;27.60;12.73;;;10.20;98.40;;;;;;5016381;28;20190;-79
2021/09/22 02:07:44;;;;;;;30.43;14.63;;;10.20;98.40;;;;;;5016298;28;20704;-78
2021/09/22 02:10:10;;;;;;;33.33;13.03;;;10.20;98.90;;;;;;5016184;28;20181;-79
2021/09/22 02:12:36;;;;;;;33.20;13.52;;;10.10;99.10;;;;;;5015304;28;20416;-79
2021/09/22 02:15:03;;;;;;;29.90;14.32;;;10.10;99.10;;;;;;5016092;28;20188;-78
2021/09/22 02:17:29;;;;;;;26.83;12.80;;;10.10;99.00;;;;;;5016184;28;20174;-79
2021/09/22 02:19:55;;;;;;;27.70;12.90;;;10.00;99.10;;;;;;5016206;28;20184;-79
2021/09/22 02:22:21;;;;;;;27.03;13.07;;;10.10;99.10;;;;;;5016044;28;20793;-79
2021/09/22 02:24:46;;;;;;;32.20;14.40;;;10.00;98.90;;;;;;5015928;28;21015;-78
2021/09/22 02:27:14;;;;;;;25.33;13.03;;;10.00;98.90;;;;;;5015815;28;20435;-78
2021/09/22 02:29:41;;;;;;;24.08;12.95;;;10.00;99.10;;;;;;5015982;28;20177;-79
2021/09/22 02:32:08;;;;;;;29.05;12.77;;;10.00;99.10;;;;;;5015873;28;20185;-78
2021/09/22 02:34:34;;;;;;;27.60;13.13;;;9.90;99.10;;;;;;5015541;28;20269;-79
2021/09/22 02:37:00;;;;;;;28.83;13.00;;;9.90;99.10;;;;;;5015656;28;20290;-79
2021/09/22 02:39:26;;;;;;;27.53;12.47;;;9.90;99.10;;;;;;5015821;28;20209;-79
2021/09/22 02:41:52;;;;;;;28.55;13.45;;;9.90;99.10;;;;;;5015665;28;20456;-79
2021/09/22 02:44:18;;;;;;;28.20;13.27;;;9.90;99.10;;;;;;5015783;28;20170;-79
2021/09/22 02:46:44;;;;;;;28.88;13.40;;;9.90;99.10;;;;;;5015849;28;20432;-79
2021/09/22 02:49:10;;;;;;;36.50;13.85;;;9.90;99.10;;;;;;5016175;28;20213;-79
2021/09/22 02:51:36;;;;;;;36.80;14.97;;;9.80;99.10;;;;;;5016269;28;20204;-79
2021/09/22 02:54:02;;;;;;;31.97;14.70;;;9.80;99.10;;;;;;5016657;28;20419;-79
2021/09/22 02:56:28;;;;;;;29.95;12.57;;;9.80;99.10;;;;;;5016063;28;20490;-79
2021/09/22 02:58:54;;;;;;;28.25;13.95;;;9.80;99.10;;;;;;5016502;28;20641;-79
2021/09/22 03:01:20;;;;;;;31.17;13.53;;;9.80;99.10;;;;;;5016265;28;20194;-79
2021/09/22 03:03:46;;;;;;;30.23;13.17;;;9.80;99.10;;;;;;5016048;28;20775;-79
2021/09/22 03:06:12;;;;;;;32.27;12.93;;;9.80;99.10;;;;;;5016191;28;20459;-79
2021/09/22 03:08:38;;;;;;;31.83;13.10;;;9.80;99.10;;;;;;5016284;28;20506;-79
2021/09/22 03:11:09;;;;;;;33.50;13.88;;;9.70;99.10;;;;;;5016097;28;20174;-79
2021/09/22 03:13:36;;;;;;;28.98;13.85;;;9.70;99.10;;;;;;5015686;28;20174;-79
2021/09/22 03:16:03;;;;;;;26.67;12.27;;;9.70;99.10;;;;;;5016009;28;20200;-79
2021/09/22 03:18:30;;;;;;;24.17;12.90;;;9.70;99.10;;;;;;5016362;28;20223;-79
2021/09/22 03:20:56;;;;;;;26.80;12.32;;;9.70;99.10;;;;;;5015973;28;20202;-79
2021/09/22 03:23:22;;;;;;;27.30;13.33;;;9.70;99.10;;;;;;5015793;28;20638;-79
2021/09/22 03:25:48;;;;;;;28.08;13.85;;;9.60;99.10;;;;;;5015846;28;20420;-79
2021/09/22 03:28:13;;;;;;;26.25;13.90;;;9.60;99.10;;;;;;5033422;28;20193;-79
2021/09/22 03:30:40;;;;;;;33.77;14.90;;;9.60;99.10;;;;;;5015418;28;20256;-79
2021/09/22 03:33:06;;;;;;;27.10;12.07;;;9.60;99.10;;;;;;5015315;28;20909;-79
2021/09/22 03:35:32;;;;;;;33.22;14.25;;;9.70;99.10;;;;;;5015395;28;20201;-79
2021/09/22 03:37:59;;;;;;;29.98;12.38;;;9.60;99.10;;;;;;5015396;28;20654;-79
2021/09/22 03:40:25;;;;;;;27.73;13.00;;;9.60;99.10;;;;;;5015523;28;20184;-79
2021/09/22 03:42:51;;;;;;;27.47;14.33;;;9.60;99.10;;;;;;5015237;28;20198;-79
2021/09/22 03:45:16;;;;;;;30.27;15.10;;;9.60;99.10;;;;;;5014820;28;20432;-79
2021/09/22 03:47:42;;;;;;;33.97;14.63;;;9.60;99.10;;;;;;5015362;28;20904;-79
2021/09/22 03:50:25;;;;;;;33.43;14.13;;;9.60;99.10;;;;;;5015448;28;20165;-79
2021/09/22 03:52:51;;;;;;;31.73;13.57;;;9.60;99.10;;;;;;5015527;28;20774;-79
2021/09/22 03:55:16;;;;;;;37.13;13.57;;;9.60;99.10;;;;;;5015074;28;20194;-79
2021/09/22 03:57:42;;;;;;;26.50;13.13;;;9.60;99.10;;;;;;5032756;28;20458;-79
2021/09/22 04:00:08;;;;;;;25.50;12.60;;;9.60;99.10;;;;;;5014899;28;20174;-78
2021/09/22 04:02:34;;;;;;;26.83;13.38;;;9.60;99.10;;;;;;5015036;28;20455;-79
2021/09/22 04:05:00;;;;;;;26.47;13.30;;;9.70;99.10;;;;;;5015105;28;20170;-78
2021/09/22 04:07:26;;;;;;;31.93;13.83;;;9.60;99.10;;;;;;5015269;28;20629;-79
2021/09/22 04:09:51;;;;;;;32.63;14.23;;;9.60;99.10;;;;;;5015327;28;20170;-78
2021/09/22 04:12:17;;;;;;;26.27;13.10;;;9.70;99.10;;;;;;5018365;28;20428;-79
2021/09/22 04:14:43;;;;;;;23.60;12.83;;;9.70;99.10;;;;;;5017190;28;20174;-79
2021/09/22 04:17:09;;;;;;;27.90;12.70;;;9.70;99.10;;;;;;5017839;28;20193;-80
2021/09/22 04:19:34;;;;;;;31.20;14.27;;;9.60;99.10;;;;;;5034939;28;20198;-79
2021/09/22 04:22:01;;;;;;;26.90;12.77;;;9.60;99.10;;;;;;5016714;28;20460;-79
2021/09/22 04:24:27;;;;;;;31.15;13.25;;;9.70;99.10;;;;;;5016258;28;20177;-79
2021/09/22 04:26:53;;;;;;;26.90;12.20;;;9.60;99.10;;;;;;5015684;28;20194;-78
2021/09/22 04:29:19;;;;;;;31.17;13.90;;;9.60;99.10;;;;;;5016233;28;20174;-78
2021/09/22 04:31:44;;;;;;;28.87;14.93;;;9.60;99.10;;;;;;5016260;28;20775;-79
2021/09/22 04:34:10;;;;;;;26.60;13.73;;;9.50;99.10;;;;;;5015457;28;20417;-78
2021/09/22 04:36:37;;;;;;;32.00;13.60;;;9.50;99.10;;;;;;5017894;28;20704;-78
2021/09/22 04:39:06;;;;;;;30.33;13.50;;;9.40;99.10;;;;;;5017999;28;20416;-77
2021/09/22 04:41:32;;;;;;;31.83;13.77;;;9.40;99.10;;;;;;5017814;28;20190;-77
2021/09/22 04:43:57;;;;;;;25.47;12.40;;;9.40;99.10;;;;;;5018044;28;20219;-77
2021/09/22 04:46:23;;;;;;;31.30;14.13;;;9.40;99.10;;;;;;5017681;28;20548;-77
2021/09/22 04:48:49;;;;;;;30.33;12.83;;;9.40;99.10;;;;;;5017739;28;20228;-77
2021/09/22 04:51:15;;;;;;;31.90;12.63;;;9.40;99.10;;;;;;5017577;28;20213;-77
2021/09/22 04:53:40;;;;;;;28.13;11.80;;;9.40;99.10;;;;;;5017821;28;20174;-77
2021/09/22 04:56:06;;;;;;;23.07;11.73;;;9.40;99.10;;;;;;5017555;28;20583;-78
2021/09/22 04:58:32;;;;;;;30.20;13.90;;;9.30;99.10;;;;;;5017352;28;20413;-77
2021/09/22 05:01:02;;;;;;;28.73;13.50;;;9.30;99.10;;;;;;5004331;28;20256;-77
2021/09/22 05:03:30;;;;;;;30.08;13.77;;;9.30;99.10;;;;;;4997356;28;20410;-77
2021/09/22 05:05:57;;;;;;;28.33;13.18;;;9.20;99.10;;;;;;4997538;28;20186;-77
2021/09/22 05:08:23;;;;;;;28.35;14.50;;;9.30;99.10;;;;;;4997493;28;20174;-77
2021/09/22 05:10:49;;;;;;;29.77;12.88;;;9.20;99.10;;;;;;4997510;28;20177;-77
2021/09/22 05:13:15;;;;;;;28.80;14.10;;;9.20;99.10;;;;;;4997226;28;20174;-77
2021/09/22 05:15:41;;;;;;;34.30;14.30;;;9.20;99.10;;;;;;4997156;28;20440;-77
2021/09/22 05:18:06;;;;;;;31.57;13.07;;;9.10;99.10;;;;;;4997425;28;20205;-77
2021/09/22 05:20:32;;;;;;;28.30;13.50;;;9.10;99.10;;;;;;4997345;28;20948;-77
2021/09/22 05:22:58;;;;;;;29.53;14.00;;;9.10;99.10;;;;;;4997166;28;20465;-77
2021/09/22 05:25:24;;;;;;;30.80;13.50;;;9.10;99.10;;;;;;4996997;28;20433;-77
2021/09/22 05:27:49;;;;;;;29.40;13.43;;;9.20;99.10;;;;;;4996825;28;20186;-78
2021/09/22 05:30:15;;;;;;;31.67;13.80;;;9.20;99.10;;;;;;4996907;28;20497;-77
2021/09/22 05:32:41;;;;;;;43.65;15.63;;;9.20;99.10;;;;;;4997346;28;20436;-78
2021/09/22 05:35:08;;;;;;;30.00;13.77;;;9.20;99.10;;;;;;4996788;28;20178;-77
2021/09/22 05:37:34;;;;;;;38.88;14.60;;;9.20;99.10;;;;;;4996891;28;20425;-78
2021/09/22 05:40:00;;;;;;;32.07;14.87;;;9.20;99.10;;;;;;4996808;28;20175;-78
2021/09/22 05:42:27;;;;;;;31.75;15.25;;;9.20;99.10;;;;;;4996795;28;20445;-77
2021/09/22 05:44:53;;;;;;;34.17;15.10;;;9.20;99.10;;;;;;4996390;28;20171;-77
2021/09/22 05:47:19;;;;;;;29.77;13.18;;;9.20;99.10;;;;;;5014303;28;20170;-77
2021/09/22 05:49:45;;;;;;;32.63;13.40;;;9.20;99.10;;;;;;4996949;28;20184;-78
2021/09/22 05:52:10;;;;;;;29.80;14.13;;;9.30;99.10;;;;;;4996677;28;20182;-77
2021/09/22 05:54:36;;;;;;;34.47;14.40;;;9.30;99.10;;;;;;4996553;28;20178;-78
2021/09/22 05:57:02;;;;;;;33.87;15.17;;;9.30;99.10;;;;;;4996339;28;20437;-77
2021/09/22 05:59:29;;;;;;;27.65;14.55;;;9.30;99.10;;;;;;4996375;28;20185;-77
2021/09/22 06:01:56;;;;;;;36.97;16.65;;;9.40;99.10;;;;;;4996197;28;20202;-78
2021/09/22 06:04:21;;;;;;;29.30;13.48;;;9.40;99.10;;;;;;4996099;28;20580;-77
2021/09/22 06:06:47;;;;;;;37.67;15.40;;;9.40;99.10;;;;;;4996062;28;20198;-78
2021/09/22 06:09:13;;;;;;;31.90;16.00;;;9.40;99.10;;;;;;4996400;28;20587;-78
2021/09/22 06:11:39;;;;;;;32.47;13.80;;;9.40;99.10;;;;;;4996296;28;20420;-77
2021/09/22 06:14:05;;;;;;;34.65;13.25;;;9.40;99.10;;;;;;4996089;28;20471;-77
2021/09/22 06:16:31;;;;;;;34.88;15.07;;;9.50;99.10;;;;;;4996225;28;20289;-78
2021/09/22 06:18:57;;;;;;;34.78;15.45;;;9.50;99.10;;;;;;4996159;28;20564;-77
2021/09/22 06:21:24;;;;;;;32.28;14.68;;;9.50;99.10;;;;;;4995993;28;20217;-78
2021/09/22 06:26:24;;;;;;;41.75;16.80;;;9.60;99.10;;;;;;4980702;28;20591;-82
2021/09/22 06:28:51;;;;;;;36.00;14.95;;;9.60;99.10;;;;;;4966219;28;20172;-82
2021/09/22 06:31:17;;;;;;;36.42;14.68;;;9.60;99.10;;;;;;4965487;28;20179;-82
2021/09/22 06:33:43;;;;;;;35.58;15.68;;;9.70;99.10;;;;;;4965464;28;20227;-82
2021/09/22 06:36:09;;;;;;;34.65;15.45;;;9.70;99.10;;;;;;4965627;28;20200;-82
2021/09/22 06:38:36;;;;;;;34.33;16.30;;;9.80;99.10;;;;;;4966321;28;20188;-81
2021/09/22 06:41:02;;;;;;;35.05;16.27;;;9.80;99.10;;;;;;4966230;28;20501;-81
2021/09/22 06:43:28;;;;;;;37.20;16.73;;;9.90;99.10;;;;;;4966351;28;20660;-81
2021/09/22 06:45:55;;;;;;;39.10;16.83;;;10.00;99.10;;;;;;4965106;28;20223;-82
2021/09/22 06:48:21;;;;;;;43.20;16.00;;;10.20;99.10;;;;;;4965710;28;20180;-82
2021/09/22 06:50:47;;;;;;;38.40;15.67;;;10.30;99.10;;;;;;4965394;28;20412;-82
2021/09/22 06:53:13;;;;;;;38.00;15.20;;;10.30;99.10;;;;;;4965549;28;20411;-82
2021/09/22 06:55:39;;;;;;;36.75;15.63;;;10.40;99.10;;;;;;4964853;28;20196;-82
2021/09/22 06:58:06;;;;;;;30.10;14.52;;;10.50;99.10;;;;;;4964548;28;20175;-79
2021/09/22 07:00:35;;;;;;;30.80;14.63;;;10.50;99.10;;;;;;4965120;28;20645;-82
2021/09/22 07:03:02;;;;;;;38.63;14.95;;;10.50;99.10;;;;;;4965255;28;20203;-82
2021/09/22 07:05:28;;;;;;;45.17;15.98;;;10.60;99.10;;;;;;4965780;28;20192;-82
2021/09/22 07:08:01;;;;;;;32.92;15.52;;;10.60;99.10;;;;;;4965197;28;20183;-81
2021/09/22 07:10:31;;;;;;;33.15;15.23;;;10.70;99.10;;;;;;4963889;28;20186;-82
2021/09/22 07:12:57;;;;;;;33.28;15.90;;;10.80;99.10;;;;;;4964705;28;20160;-82
2021/09/22 07:15:23;;;;;;;41.35;17.48;;;10.90;98.70;;;;;;4965534;28;20195;-82
2021/09/22 07:17:49;;;;;;;36.33;15.40;;;10.90;98.30;;;;;;4965313;28;20659;-82
2021/09/22 07:20:14;;;;;;;31.10;14.47;;;10.90;97.80;;;;;;4965095;28;20411;-82
2021/09/22 07:22:41;;;;;;;40.90;17.00;;;11.10;98.30;;;;;;4964591;28;20294;-82
2021/09/22 07:25:09;;;;;;;37.50;14.68;;;11.10;97.90;;;;;;4965072;28;20451;-82
2021/09/22 07:27:35;;;;;;;37.75;16.45;;;11.30;97.60;;;;;;4964053;28;20183;-82
2021/09/22 07:30:01;;;;;;;45.50;15.35;;;11.40;97.60;;;;;;4982371;28;20171;-82
2021/09/22 07:32:27;;;;;;;47.33;17.50;;;11.50;96.70;;;;;;4964007;28;20212;-82
2021/09/22 07:34:53;;;;;;;34.43;16.50;;;11.60;96.40;;;;;;4963436;28;20182;-82
2021/09/22 07:37:19;;;;;;;40.43;16.87;;;11.70;96.40;;;;;;4964043;28;20415;-82
2021/09/22 07:39:46;;;;;;;36.55;16.45;;;11.80;96.00;;;;;;4964898;28;20191;-82
2021/09/22 07:42:13;;;;;;;37.05;16.55;;;11.80;96.20;;;;;;4965840;28;20282;-82
2021/09/22 07:44:53;;;;;;;31.17;15.20;;;11.90;96.10;;;;;;4965843;28;20168;-81
2021/09/22 07:47:19;;;;;;;40.40;16.70;;;12.00;95.40;;;;;;4964983;28;20168;-82
2021/09/22 07:49:45;;;;;;;38.20;16.90;;;12.10;95.20;;;;;;4965563;28;20172;-82
2021/09/22 07:52:12;;;;;;;35.50;15.37;;;12.10;95.40;;;;;;4965181;28;20219;-82
2021/09/22 07:54:38;;;;;;;28.52;14.20;;;12.20;95.10;;;;;;4965054;28;20179;-81
2021/09/22 07:57:04;;;;;;;40.13;16.35;;;12.40;94.80;;;;;;4964322;28;20200;-82
2021/09/22 07:59:31;;;;;;;36.60;14.48;;;12.60;94.50;;;;;;4964345;28;20199;-82
2021/09/22 08:01:58;;;;;;;40.38;16.35;;;12.70;94.20;;;;;;4963792;28;20199;-82
2021/09/22 08:04:25;;;;;;;34.50;16.50;;;12.80;93.30;;;;;;4963581;28;20168;-82
2021/09/22 08:06:50;;;;;;;38.33;16.98;;;12.90;92.90;;;;;;4963879;28;20477;-82
2021/09/22 08:09:18;;;;;;;38.87;17.27;;;13.00;92.20;;;;;;4964339;28;20178;-82
2021/09/22 08:11:44;;;;;;;41.25;17.98;;;13.20;91.20;;;;;;4966840;28;20486;-82
2021/09/22 08:14:10;;;;;;;42.15;19.20;;;13.30;90.70;;;;;;4968029;28;20180;-82
2021/09/22 08:16:36;;;;;;;40.93;16.73;;;13.40;90.80;;;;;;4966270;28;20196;-82
2021/09/22 08:19:02;;;;;;;41.33;16.60;;;13.50;89.60;;;;;;4968413;28;20411;-81
2021/09/22 08:21:28;;;;;;;37.95;18.13;;;13.60;89.90;;;;;;4967880;28;20541;-82
2021/09/22 08:23:53;;;;;;;37.10;15.70;;;13.60;90.40;;;;;;4967289;28;20230;-82
2021/09/22 08:26:19;;;;;;;36.63;16.57;;;13.80;90.10;;;;;;4966844;28;20208;-82
2021/09/22 08:28:45;;;;;;;35.20;16.90;;;13.90;88.40;;;;;;4966503;28;20442;-82
2021/09/22 08:31:11;;;;;;;29.87;16.00;;;14.10;87.40;;;;;;4967698;28;20993;-82
2021/09/22 08:33:37;;;;;;;33.77;16.03;;;14.20;87.60;;;;;;4967490;28;20542;-82
2021/09/22 08:36:03;;;;;;;38.27;16.70;;;14.20;87.80;;;;;;4967940;28;20196;-82
2021/09/22 08:38:28;;;;;;;37.83;17.20;;;14.30;86.70;;;;;;4967693;28;20435;-82
2021/09/22 08:40:54;;;;;;;32.23;16.83;;;14.40;87.00;;;;;;4966287;28;20179;-82
2021/09/22 08:43:25;;;;;;;29.57;15.43;;;14.50;87.10;;;;;;4966749;28;20421;-82
2021/09/22 08:45:51;;;;;;;40.65;16.00;;;14.50;86.90;;;;;;4967360;28;20466;-82
2021/09/22 08:48:17;;;;;;;33.22;15.10;;;14.60;85.10;;;;;;4966677;28;20172;-82
2021/09/22 08:50:43;;;;;;;36.83;15.73;;;14.80;85.10;;;;;;4983612;28;20290;-81
2021/09/22 08:53:08;;;;;;;34.58;15.65;;;14.90;84.60;;;;;;4965786;28;20183;-82
2021/09/22 08:55:34;;;;;;;33.00;14.57;;;15.00;84.90;;;;;;4965048;28;20200;-80
2021/09/22 08:58:00;;;;;;;45.73;16.33;;;15.10;83.80;;;;;;4966393;28;20179;-79
2021/09/22 09:00:26;;;;;;;33.20;15.60;;;15.30;83.90;;;;;;4965462;28;20420;-81
2021/09/22 09:02:53;;;;;;;39.92;15.75;;;15.40;81.70;;;;;;4965293;28;20231;-81
2021/09/22 09:05:23;;;;;;;38.53;18.92;;;15.50;80.50;;;;;;4965263;28;20263;-81
2021/09/22 09:07:57;;;;;;;33.63;16.30;;;15.60;79.60;;;;;;4966320;28;20207;-81
2021/09/22 09:10:28;;;;;;;36.72;17.27;;;15.60;79.20;;;;;;4966346;28;20156;-81
2021/09/22 09:13:12;;;;;;;36.72;15.90;;;15.70;79.60;;;;;;4965588;28;20223;-81
2021/09/22 09:15:45;;;;;;;28.95;14.10;;;15.80;78.70;;;;;;4965601;28;20688;-81
2021/09/22 09:18:26;;;;;;;31.02;15.90;;;16.00;78.00;;;;;;4966511;28;20175;-81
2021/09/22 09:20:54;;;;;;;32.78;14.18;;;16.10;77.70;;;;;;4965048;28;20167;-81
2021/09/22 09:23:22;;;;;;;26.20;14.57;;;16.20;77.70;;;;;;4966274;28;20168;-81
2021/09/22 09:25:57;;;;;;;28.42;15.23;;;16.40;75.60;;;;;;4965226;28;20212;-81
2021/09/22 09:28:36;;;;;;;30.17;14.20;;;16.50;73.90;;;;;;4965119;28;20176;-79
2021/09/22 09:31:06;;;;;;;21.80;13.48;;;16.60;73.10;;;;;;4969690;28;20187;-80
2021/09/22 09:33:37;;;;;;;28.80;14.75;;;16.60;74.60;;;;;;4966320;28;20601;-81
2021/09/22 09:36:30;;;;;;;35.33;16.15;;;16.70;75.20;;;;;;4965375;28;20279;-81
2021/09/22 09:39:03;;;;;;;26.50;13.60;;;16.90;74.50;;;;;;4964494;28;20179;-81
2021/09/22 09:41:34;;;;;;;22.80;12.55;;;17.10;73.80;;;;;;4964499;28;20304;-81
2021/09/22 09:44:02;;;;;;;30.40;13.65;;;17.20;73.70;;;;;;4965448;28;20176;-81
2021/09/22 09:46:29;;;;;;;31.60;13.70;;;17.30;72.10;;;;;;4964833;28;20203;-81
2021/09/22 09:49:02;;;;;;;26.90;14.07;;;17.40;71.90;;;;;;4966054;28;20226;-81
2021/09/22 09:51:55;;;;;;;26.75;13.20;;;17.40;72.00;;;;;;4966626;28;20179;-81
2021/09/22 09:54:33;;;;;;;26.17;13.18;;;17.30;72.30;;;;;;4958076;28;20180;-81
2021/09/22 09:57:14;;;;;;;21.27;12.48;;;17.50;72.70;;;;;;4965911;28;20286;-81
2021/09/22 09:59:50;;;;;;;26.42;13.30;;;17.60;71.40;;;;;;4965140;28;20271;-80
2021/09/22 10:02:32;;;;;;;26.92;13.38;;;17.60;73.00;;;;;;4966039;28;20218;-81
2021/09/22 10:04:59;;;;;;;24.25;11.60;;;17.70;71.00;;;;;;4966960;28;20164;-81
2021/09/22 10:07:26;;;;;;;24.27;12.43;;;17.90;71.20;;;;;;4966012;28;20184;-81
2021/09/22 10:09:52;;;;;;;22.15;10.00;;;18.00;70.20;;;;;;4964891;28;20670;-83
2021/09/22 10:12:19;;;;;;;19.45;11.48;;;18.10;69.40;;;;;;4965096;28;20180;-80
2021/09/22 10:14:47;;;;;;;19.95;9.50;;;18.30;68.70;;;;;;4965164;28;20176;-80
2021/09/22 10:17:15;;;;;;;23.63;10.85;;;18.40;66.90;;;;;;4964736;28;20192;-80
2021/09/22 10:19:46;;;;;;;16.65;9.75;;;18.60;69.50;;;;;;4964995;28;20544;-80
2021/09/22 10:22:12;;;;;;;15.35;8.18;;;18.60;66.60;;;;;;4963831;28;20195;-80
2021/09/22 10:24:38;;;;;;;16.70;9.18;;;18.70;65.30;;;;;;4964581;28;20683;-80
2021/09/22 10:27:05;;;;;;;18.90;9.38;;;18.80;65.10;;;;;;4965037;28;20200;-80
2021/09/22 10:29:37;;;;;;;15.88;8.50;;;18.90;64.20;;;;;;4964521;28;20510;-80
2021/09/22 10:32:04;;;;;;;12.80;7.00;;;18.90;64.60;;;;;;4963306;28;20176;-80
2021/09/22 10:34:36;;;;;;;10.95;7.25;;;18.90;61.30;;;;;;4963520;28;20176;-80
2021/09/22 10:37:26;;;;;;;15.93;8.02;;;18.90;61.60;;;;;;4963854;28;20247;-80
2021/09/22 10:39:51;;;;;;;9.80;7.00;;;18.90;62.60;;;;;;4963719;28;20172;-80
2021/09/22 10:42:30;;;;;;;15.03;7.77;;;18.90;62.70;;;;;;4964024;28;20218;-80
2021/09/22 10:45:12;;;;;;;15.95;6.80;;;19.10;63.40;;;;;;4964784;28;20175;-80
2021/09/22 10:47:38;;;;;;;14.65;8.55;;;19.30;62.60;;;;;;4963414;28;20203;-80
2021/09/22 10:50:04;;;;;;;9.43;5.85;;;19.50;62.40;;;;;;4964402;28;20176;-80
2021/09/22 10:52:41;;;;;;;12.93;6.63;;;19.60;60.20;;;;;;4981585;28;20271;-80
2021/09/22 10:55:08;;;;;;;11.02;6.43;;;19.70;60.10;;;;;;4963918;28;20175;-79
2021/09/22 10:57:34;;;;;;;9.20;5.57;;;19.80;60.30;;;;;;4963551;28;20263;-79
2021/09/22 11:00:14;;;;;;;6.93;3.80;;;19.90;59.40;;;;;;4962991;28;20178;-80
2021/09/22 11:02:45;;;;;;;7.00;4.43;;;20.00;59.60;;;;;;4961246;28;20250;-78
2021/09/22 11:05:13;;;;;;;5.15;3.65;;;20.10;58.80;;;;;;4960668;28;20199;-78
2021/09/22 11:08:08;;;;;;;7.55;4.63;;;20.30;59.40;;;;;;4961217;28;20179;-78
2021/09/22 11:10:35;;;;;;;7.63;4.40;;;20.50;57.90;;;;;;4960291;28;20172;-78
2021/09/22 11:13:22;;;;;;;7.00;3.50;;;20.50;56.30;;;;;;4959919;28;20187;-78
2021/09/22 11:15:49;;;;;;;6.60;4.35;;;20.60;57.10;;;;;;4958639;28;20195;-78
2021/09/22 11:18:16;;;;;;;7.65;4.32;;;20.70;57.10;;;;;;4958749;28;20290;-78
2021/09/22 11:20:53;;;;;;;5.47;4.10;;;20.80;56.00;;;;;;4958480;28;20254;-77
2021/09/22 11:23:21;;;;;;;5.82;3.38;;;20.80;56.70;;;;;;4958665;28;20190;-78
2021/09/22 11:25:47;;;;;;;5.18;3.05;;;21.00;55.50;;;;;;4960203;28;20239;-78
2021/09/22 11:28:13;;;;;;;6.93;3.38;;;21.10;55.70;;;;;;4960536;28;20176;-78
2021/09/22 11:30:40;;;;;;;9.90;3.10;;;21.20;55.40;;;;;;4959873;28;20636;-78
2021/09/22 11:33:06;;;;;;;5.20;2.83;;;21.30;56.60;;;;;;4960770;28;20192;-77
2021/09/22 11:35:32;;;;;;;3.50;2.97;;;21.40;55.30;;;;;;4960514;28;20230;-78
2021/09/22 11:38:00;;;;;;;6.80;3.53;;;21.40;56.60;;;;;;4960351;28;20427;-78
2021/09/22 11:40:35;;;;;;;5.15;3.30;;;21.70;54.90;;;;;;4959683;28;20198;-78
2021/09/22 11:43:07;;;;;;;7.82;4.20;;;21.80;54.90;;;;;;4959038;28;20199;-78
2021/09/22 11:45:52;;;;;;;12.65;3.47;;;21.80;53.80;;;;;;4965783;28;20534;-78
2021/09/22 11:48:26;;;;;;;11.50;3.83;;;22.10;54.10;;;;;;4966119;28;20182;-78
2021/09/22 11:50:52;;;;;;;4.63;3.00;;;22.10;52.90;;;;;;4964610;28;20171;-78
2021/09/22 11:53:21;;;;;;;6.65;3.47;;;21.90;54.20;;;;;;4965002;28;20640;-78
2021/09/22 11:55:49;;;;;;;3.80;2.63;;;21.90;55.10;;;;;;4965380;28;20195;-77
2021/09/22 11:58:23;;;;;;;3.42;2.67;;;22.10;53.40;;;;;;4964761;28;20179;-78
2021/09/22 12:00:51;;;;;;;5.65;3.20;;;22.10;54.20;;;;;;4964675;28;20214;-76
2021/09/22 12:03:20;;;;;;;5.38;2.97;;;22.20;54.30;;;;;;4964241;28;20294;-76
2021/09/22 12:05:46;;;;;;;6.82;3.28;;;22.20;54.60;;;;;;4963896;28;20708;-78
2021/09/22 12:08:13;;;;;;;8.20;3.17;;;22.10;54.20;;;;;;4966080;28;20168;-78
2021/09/22 12:10:43;;;;;;;5.45;3.20;;;21.90;54.70;;;;;;4964358;28;20411;-77
2021/09/22 12:13:09;;;;;;;11.82;4.38;;;21.90;55.70;;;;;;4963411;28;20289;-78
2021/09/22 12:15:35;;;;;;;6.65;3.55;;;21.80;54.90;;;;;;4963534;28;20199;-78
2021/09/22 12:18:01;;;;;;;10.97;4.10;;;21.80;55.10;;;;;;4966698;28;20191;-80
2021/09/22 12:20:33;;;;;;;7.72;3.85;;;21.70;57.70;;;;;;4963514;28;20176;-78
2021/09/22 12:23:01;;;;;;;7.63;4.47;;;21.80;57.00;;;;;;4966486;28;20207;-78
2021/09/22 12:25:29;;;;;;;8.27;4.55;;;21.90;55.30;;;;;;5059606;23;20669;-80
2021/09/22 12:27:55;;;;;;;5.60;3.92;;;22.10;56.00;;;;;;5005932;28;20167;-80
2021/09/22 12:30:47;;;;;;;7.88;4.00;;;22.20;55.50;;;;;;5005008;28;20170;-81
2021/09/22 12:33:18;;;;;;;8.68;3.70;;;22.40;54.90;;;;;;5002638;28;20246;-81
2021/09/22 12:35:44;;;;;;;8.10;4.40;;;22.50;54.90;;;;;;5006341;28;20190;-81
2021/09/22 12:38:15;;;;;;;7.70;3.67;;;22.70;55.00;;;;;;5006187;28;20167;-81
2021/09/22 12:40:44;;;;;;;6.80;4.63;;;22.80;54.20;;;;;;5005771;28;20171;-81